Flight Track Log - Related Links

Times and Time Zones

All times are in EDT time to prevent confusion due to time zone crossing. See the UPS1337 flight status page for this flight to view local times or setup timezone preferences in your user account.

Time Position Orientation Groundspeed Altitude Reporting Facility
EDT Latitude Longitude Course Direction KTS MPH feet Rate Location/Type
Thu 09:42:00 PM 27.9000 -82.6833 180° South 170 196 700  Level Tampa TRACON
Thu 09:42:36 PM 27.8667 -82.6833 180° South 186 214 2,300 2,845 Climbing Tampa TRACON
Thu 09:43:37 PM 27.8167 -82.7000 196° South 257 296 5,300 3,054 Climbing Tampa TRACON
Thu 09:45:23 PM 27.8828 -82.7844 312° West 261 300 10,800 2,422 Climbing Jacksonville Center
Thu 09:46:23 PM 27.9767 -82.7892 357° North 269 310 12,000 1,350 Climbing Jacksonville Center
Thu 09:47:23 PM 28.0872 -82.7939 358° North 326 375 13,500 2,250 Climbing Jacksonville Center
Thu 09:48:23 PM 28.1978 -82.8103 353° North 376 433 16,500 2,650 Climbing Jacksonville Center
Thu 09:49:23 PM 28.2981 -82.8642 335° Northwest 384 442 18,800 3,100 Climbing Jacksonville Center
Thu 09:50:23 PM 28.4025 -82.9092 339° North 393 452 22,700 2,650 Climbing Jacksonville Center
Thu 09:51:23 PM 28.5214 -82.9517 343° North 393 452 24,100 1,600 Climbing Jacksonville Center
Thu 09:52:23 PM 28.6361 -82.9942 342° North 400 460 25,900 1,446 Climbing Jacksonville Center
Thu 09:52:46 PM 28.6800 -83.0092 342° North 437 503 26,100 508 Climbing FlightAware ADS-B
Thu 09:53:22 PM 28.7531 -83.0322 344° North 416 479 26,400 1,052 Climbing Jacksonville Center
Thu 09:54:23 PM 28.8803 -83.0681 346° North 444 511 27,800 1,700 Climbing Jacksonville Center
Thu 09:55:22 PM 29.0056 -83.1039 346° North 462 532 29,800 1,700 Climbing Jacksonville Center
Thu 09:56:23 PM 29.1161 -83.1350 346° North 462 532 31,200 1,100 Climbing Jacksonville Center
Thu 09:57:22 PM 29.2411 -83.1711 346° North 462 532 32,000 400 Climbing Jacksonville Center
Thu 09:58:23 PM 29.3642 -83.2047 347° North 462 532 32,000 -50 Level Jacksonville Center
Thu 09:59:23 PM 29.4894 -83.2386 347° North 456 525 31,900  Descending Jacksonville Center
Thu 10:00:23 PM 29.6125 -83.2747 346° North 451 519 32,000 14 Climbing Jacksonville Center
Thu 10:06:24 PM 30.3681 -83.4824 346° North 455 524 32,000  Level FlightAware ADS-B (KONZ)
Thu 10:06:54 PM 30.4305 -83.5000 346° North 458 527 32,000  Level FlightAware ADS-B (KONZ)
Thu 10:07:30 PM 30.5038 -83.5207 346° North 458 527 32,000  Level FlightAware ADS-B (KONZ)
Thu 10:08:15 PM 30.5964 -83.5466 347° North 456 525 32,000  Level FlightAware ADS-B (KONZ)
Thu 10:08:55 PM 30.6718 -83.5667 347° North 456 525 32,000  Level FlightAware ADS-B (KONZ)
Thu 10:09:28 PM 30.7476 -83.5880 346° North 455 524 32,000  Level FlightAware ADS-B (KONZ)
Thu 10:10:54 PM 30.9230 -83.6389 346° North 458 527 32,000  Level FlightAware ADS-B (KONZ)
Thu 10:11:34 PM 31.0046 -83.6622 346° North 460 529 32,000  Level FlightAware ADS-B (KONZ)
Thu 10:12:05 PM 31.0706 -83.6811 346° North 462 532 32,000  Level FlightAware ADS-B (KONZ)
Thu 10:13:23 PM 31.2242 -83.7258 346° North 457 526 32,000  Level Jacksonville Center
Thu 10:14:23 PM 31.3450 -83.7611 346° North 451 519 32,000  Level Jacksonville Center
Thu 10:16:31 PM 31.6003 -83.8414 345° North 452 520 32,000  Level Atlanta Center
Thu 10:17:31 PM 31.7403 -83.8778 348° North 457 526 32,000  Level Atlanta Center
Thu 10:18:31 PM 31.8633 -83.9142 346° North 455 524 32,000  Level Atlanta Center
Thu 10:19:31 PM 31.9867 -83.9483 347° North 455 524 32,000  Level Atlanta Center
Thu 10:20:31 PM 32.1078 -83.9850 346° North 450 518 32,000  Level Atlanta Center
Thu 10:21:31 PM 32.2289 -84.0192 347° North 450 518 32,000  Level Atlanta Center
Thu 10:22:31 PM 32.3519 -84.0561 346° North 450 518 32,000  Level Atlanta Center
Thu 10:23:31 PM 32.4731 -84.0906 347° North 450 518 32,000  Level Atlanta Center
Thu 10:24:31 PM 32.5939 -84.1275 346° North 450 518 32,000  Level Atlanta Center
Thu 10:25:31 PM 32.7150 -84.1622 346° North 445 512 32,000  Level Atlanta Center
Thu 10:26:31 PM 32.8339 -84.1969 346° North 445 512 32,000  Level Atlanta Center
Thu 10:27:31 PM 32.9528 -84.2419 342° North 445 512 32,000  Level Atlanta Center
Thu 10:28:31 PM 33.0739 -84.2744 347° North 445 512 32,000  Level Atlanta Center
Thu 10:29:31 PM 33.1969 -84.3094 347° North 445 512 32,000  Level Atlanta Center
Thu 10:30:31 PM 33.3200 -84.3472 346° North 445 512 32,000  Level Atlanta Center
Thu 10:31:31 PM 33.4431 -84.3822 347° North 451 519 32,000  Level Atlanta Center
Thu 10:32:31 PM 33.5619 -84.4178 346° North 444 511 32,000  Level Atlanta Center
Thu 10:37:10 PM 34.2544 -84.5870 348° North 442 509 32,000  Level FlightAware ADS-B (KDZJ)
Thu 10:37:50 PM 34.3348 -84.6066 348° North 442 509 32,000  Level FlightAware ADS-B (KDZJ)
Thu 10:38:31 PM 34.4186 -84.6271 348° North 441 507 32,000  Level FlightAware ADS-B (KDZJ)
Thu 10:39:10 PM 34.4983 -84.6467 348° North 440 506 32,000  Level FlightAware ADS-B (KDZJ)
Thu 10:40:10 PM 34.6203 -84.6768 348° North 440 506 32,000  Level FlightAware ADS-B (KDZJ)
Thu 10:40:51 PM 34.7026 -84.6971 348° North 441 507 32,000  Level FlightAware ADS-B (KDZJ)
Thu 10:41:30 PM 34.7830 -84.7171 348° North 443 510 32,000  Level FlightAware ADS-B (KDZJ)
Thu 10:43:31 PM 35.0299 -84.7788 348° North 444 511 32,000  Level FlightAware ADS-B (KDZJ)
Thu 10:44:07 PM 35.1049 -84.7975 348° North 459 528 32,000  Level FlightAware ADS-B (KDZJ)
Thu 10:47:19 PM 34.4896 -84.6445 348° North 453 521 32,000  Level FlightAware ADS-B (KMDQ)
Thu 10:48:31 PM 35.5317 -84.9064 348° North 448 516 32,000  Level Atlanta Center
Thu 10:49:31 PM 35.6544 -84.9408 347° North 448 516 32,000  Level Atlanta Center
Thu 10:50:31 PM 35.7628 -84.9781 344° North 448 516 32,000  Level Atlanta Center
Thu 10:51:40 PM 35.9036 -85.0081 350° North 455 524 32,000 -369 Level Indianapolis Center
Thu 10:52:41 PM 36.0431 -85.0397 350° North 458 527 31,200 -988 Descending Indianapolis Center
Thu 10:58:27 PM 36.6869 -85.0079 North 496 571 25,300 -1,283 Descending FlightAware ADS-B
Thu 10:59:42 PM 36.9971 -84.9899 North 475 547 22,200 -2,711 Descending FlightAware ADS-B
Thu 11:00:42 PM 37.1361 -84.9818 North 455 524 19,200 -2,528 Descending FlightAware ADS-B
Thu 11:02:59 PM 37.3954 -84.9666 North 390 449 13,900 -2,090 Descending FlightAware ADS-B
Thu 11:04:03 PM 37.4421 -84.9642 North 376 433 12,200 -1,253 Descending FlightAware ADS-B
Thu 11:06:01 PM 37.7021 -85.0155 312° West 338 389 10,100 -712 Descending FlightAware ADS-B
Thu 11:07:00 PM 37.7628 -85.1006 312° West 338 389 10,100  Level FlightAware ADS-B
Thu 11:08:01 PM 37.8263 -85.1910 304° West 317 365 10,100  Level FlightAware ADS-B
Thu 11:09:00 PM 37.8705 -85.2835 302° West 321 369 10,100  Level FlightAware ADS-B
Thu 11:09:52 PM 37.9114 -85.3668 302° West 324 373 10,100  Level FlightAware ADS-B (YPEF)
Thu 11:11:06 PM 37.9638 -85.4716 304° West 302 348 10,100  Level FlightAware ADS-B (YPEF)
Thu 11:11:46 PM 38.0001 -85.5386 305° West 265 305 10,100 -321 Level FlightAware ADS-B (YPEF)
Thu 11:12:02 PM 38.0105 -85.5572 305° West 260 299 9,800 -1,364 Descending FlightAware ADS-B (YPEF)
Thu 11:12:30 PM 38.0308 -85.5935 306° West 261 300 9,100 -1,680 Descending FlightAware ADS-B
Thu 11:12:52 PM 38.0462 -85.6203 306° West 265 305 8,400 -1,475 Descending FlightAware ADS-B (YPEF)
Thu 11:13:31 PM 38.0742 -85.6690 306° West 256 295 7,600 -1,273 Descending FlightAware ADS-B
Thu 11:14:31 PM 38.1149 -85.7410 306° West 247 284 6,300 -677 Descending FlightAware ADS-B
Thu 11:15:44 PM 38.1682 -85.8238 333° Northwest 278 320 6,100 -403 Descending FlightAware ADS-B
Thu 11:16:45 PM 38.2373 -85.8517 339° North 261 300 5,400 -1,174 Descending FlightAware ADS-B
Thu 11:17:16 PM 38.2688 -85.8673 338° Northwest 267 307 4,300 -1,227 Descending FlightAware ADS-B
Thu 11:18:13 PM 38.3439 -85.8910 338° Northwest 267 307 3,600 -667 Descending FlightAware ADS-B
Thu 11:19:13 PM 38.3683 -85.8358 338° Northwest 257 296 3,000 -298 Descending Indianapolis Center
Thu 11:20:14 PM 38.3358 -85.7964 136° Southeast 195 224 3,000 -148 Level Indianapolis Center
Thu 11:21:15 PM 38.2994 -85.7844 166° South 158 182 2,700 -390 Descending Indianapolis Center
Thu 11:22:17 PM 38.2619 -85.7750 169° South 142 163 2,200 -630 Descending Indianapolis Center
Thu 11:24:35 PM 38.1833 -85.7500 166° South 129 148 600 -696 Descending Louisville TRACON

Login

Don't have an account? Register now (free) for customized features, flight alerts, and more!